Ander, Texas
Current Conditions -  °F | °C
As of 5:15 AM on Saturday 22 Nov 2014 (Local Time) from KBEA Reporting Station
Overcast Overcast  
Wind Chill: 69°   Ceiling: 1200
Heat Index: 69°   Visibility: 10mi
Dew Point: 68°   Wind: 10mph
Humidity: 96%   Direction: 110°ESE
Pressure: 29.97"   Gusts: NA
Location:  28.6563°N, 97.4287°W
Report Text: KBEA 221115Z AUTO 11009KT 10SM OVC012 21/20 A2997 RMK AO2 LTG DSNT N T02080201
Loading
Personal Weather Stations






























Interactive Weather Map New forecast layout! Learn more

10-Day Weather Forecast

Advertisements
Track Severe Weather on mobile